createdAt,value
2023-01-21T00:02:02.843Z,6.30
2023-01-21T00:04:48.986Z,6.83
2023-01-21T00:07:35.641Z,6.83
2023-01-21T00:10:21.807Z,5.80
2023-01-21T00:13:08.045Z,7.43
2023-01-21T00:15:57.555Z,8.00
2023-01-21T00:18:43.874Z,6.80
2023-01-21T00:21:30.036Z,7.00
2023-01-21T00:24:16.969Z,6.80
2023-01-21T00:27:03.657Z,7.80
2023-01-21T00:29:50.242Z,7.13
2023-01-21T00:32:36.785Z,7.60
2023-01-21T00:35:23.331Z,7.07
2023-01-21T00:38:09.545Z,7.77
2023-01-21T00:41:06.282Z,6.13
2023-01-21T00:43:53.109Z,6.83
2023-01-21T00:46:39.384Z,6.80
2023-01-21T00:49:25.994Z,6.80
2023-01-21T00:52:12.620Z,7.43
2023-01-21T00:54:58.890Z,7.07
2023-01-21T00:57:45.507Z,7.23
2023-01-21T01:00:32.075Z,7.50
2023-01-21T01:03:18.589Z,8.17
2023-01-21T01:06:11.028Z,7.17
2023-01-21T01:08:58.576Z,7.83
2023-01-21T01:11:44.830Z,6.83
2023-01-21T01:14:31.448Z,7.13
2023-01-21T01:17:17.717Z,7.20
2023-01-21T01:20:04.560Z,6.63
2023-01-21T01:22:51.167Z,6.50
2023-01-21T01:25:37.997Z,6.00
2023-01-21T01:28:24.243Z,6.40
2023-01-21T01:31:13.874Z,7.40
2023-01-21T01:34:00.205Z,6.70
2023-01-21T01:36:47.900Z,6.87
2023-01-21T01:39:34.562Z,6.53
2023-01-21T01:42:21.305Z,6.90
2023-01-21T01:45:20.164Z,6.40
2023-01-21T01:48:07.377Z,6.43
2023-01-21T01:50:59.738Z,6.37
2023-01-21T01:53:48.072Z,7.00
2023-01-21T01:56:38.091Z,6.30
2023-01-21T01:59:24.763Z,6.70
2023-01-21T02:02:14.346Z,6.70
2023-01-21T02:05:04.919Z,7.23
2023-01-21T02:07:51.495Z,6.50
2023-01-21T02:10:37.956Z,6.83
2023-01-21T02:13:27.308Z,6.53
2023-01-21T02:17:00.450Z,6.67
2023-01-21T02:20:10.852Z,6.60
2023-01-21T02:23:19.974Z,6.63
2023-01-21T02:26:12.220Z,6.63
2023-01-21T02:29:10.930Z,7.30
2023-01-21T02:32:35.015Z,5.93
2023-01-21T02:35:44.587Z,7.20
2023-01-21T02:39:00.292Z,6.00
2023-01-21T02:42:16.113Z,6.73
2023-01-21T02:45:14.901Z,6.77
2023-01-21T02:48:32.400Z,7.20
2023-01-21T02:51:20.097Z,7.53
2023-01-21T02:54:40.341Z,7.40
2023-01-21T02:57:51.616Z,7.60
2023-01-21T03:00:50.737Z,8.10
2023-01-21T03:04:02.086Z,7.13
2023-01-21T03:06:54.599Z,7.83
2023-01-21T03:09:41.306Z,7.60
2023-01-21T03:12:59.161Z,7.63
2023-01-21T03:16:14.242Z,8.20
2023-01-21T03:19:06.166Z,7.80
2023-01-21T03:21:54.090Z,7.67
2023-01-21T03:24:43.600Z,7.87
2023-01-21T03:27:32.967Z,7.43
2023-01-21T03:30:24.128Z,7.67
2023-01-21T03:33:12.893Z,7.97
2023-01-21T03:36:02.360Z,7.57
2023-01-21T03:38:53.481Z,7.37
2023-01-21T03:41:40.495Z,7.70
2023-01-21T03:44:27.163Z,7.47
2023-01-21T03:47:35.001Z,8.90
2023-01-21T03:50:29.954Z,8.47
2023-01-21T03:53:16.239Z,9.43
2023-01-21T03:56:02.493Z,9.80
2023-01-21T03:58:49.102Z,9.43
2023-01-21T04:01:35.834Z,9.57
2023-01-21T04:04:22.144Z,9.90
2023-01-21T04:07:09.302Z,9.30
2023-01-21T04:09:55.722Z,8.80
2023-01-21T04:12:42.258Z,8.00
2023-01-21T04:15:28.545Z,8.53
2023-01-21T04:18:14.857Z,8.13
2023-01-21T04:21:01.432Z,7.80
2023-01-21T04:23:47.913Z,8.40
2023-01-21T04:26:34.164Z,8.27
2023-01-21T04:29:21.655Z,8.60
2023-01-21T04:32:07.917Z,7.47
2023-01-21T04:34:54.480Z,7.17
2023-01-21T04:37:40.798Z,9.27
2023-01-21T04:40:27.565Z,7.67
2023-01-21T04:43:13.817Z,7.93
2023-01-21T04:46:00.559Z,7.53
2023-01-21T04:48:47.298Z,8.03
2023-01-21T04:51:34.939Z,7.23
2023-01-21T04:54:21.481Z,7.30
2023-01-21T04:57:07.884Z,6.93
2023-01-21T04:59:54.153Z,6.20
2023-01-21T05:02:40.505Z,7.83
2023-01-21T05:05:27.063Z,7.77
2023-01-21T05:08:13.695Z,8.60
2023-01-21T05:11:00.001Z,7.87
2023-01-21T05:13:46.575Z,9.37
2023-01-21T05:16:33.106Z,9.10
2023-01-21T05:19:19.269Z,8.90
2023-01-21T05:22:05.749Z,12.80
2023-01-21T05:24:51.982Z,11.70
2023-01-21T05:27:38.470Z,12.53
2023-01-21T05:30:24.713Z,13.80
2023-01-21T05:33:11.440Z,13.33
2023-01-21T05:35:58.049Z,12.50
2023-01-21T05:38:44.350Z,13.80
2023-01-21T05:41:30.907Z,14.80
2023-01-21T05:44:17.826Z,12.90
2023-01-21T05:47:04.262Z,16.37
2023-01-21T05:49:50.431Z,13.40
2023-01-21T05:52:37.496Z,13.80
2023-01-21T05:55:24.077Z,12.50
2023-01-21T05:58:10.335Z,12.37
2023-01-21T06:00:58.038Z,13.87
2023-01-21T06:03:44.526Z,13.43
2023-01-21T06:06:31.150Z,11.87
2023-01-21T06:09:17.394Z,11.87
2023-01-21T06:12:04.007Z,9.87
2023-01-21T06:14:50.297Z,13.23
2023-01-21T06:17:39.332Z,10.70
2023-01-21T06:20:25.613Z,10.77
2023-01-21T06:23:13.183Z,10.13
2023-01-21T06:26:03.474Z,9.77
2023-01-21T06:28:49.742Z,10.07
2023-01-21T06:31:36.027Z,10.50
2023-01-21T06:34:22.699Z,9.37
2023-01-21T06:37:08.969Z,7.90
2023-01-21T06:39:55.281Z,10.30
2023-01-21T06:42:41.832Z,8.43
2023-01-21T06:45:28.454Z,7.47
2023-01-21T06:48:14.956Z,8.43
2023-01-21T06:51:01.674Z,8.50
2023-01-21T06:53:48.203Z,7.67
2023-01-21T06:56:34.544Z,8.77
2023-01-21T06:59:21.368Z,9.33
2023-01-21T07:02:07.997Z,8.37
2023-01-21T07:04:54.511Z,9.93
2023-01-21T07:07:41.136Z,9.30
2023-01-21T07:10:27.620Z,7.27
2023-01-21T07:13:13.821Z,8.37
2023-01-21T07:16:01.725Z,9.83
2023-01-21T07:18:48.114Z,7.77
2023-01-21T07:21:34.665Z,8.40
2023-01-21T07:24:21.231Z,9.73
2023-01-21T07:27:07.707Z,10.17
2023-01-21T07:29:53.971Z,9.20
2023-01-21T07:32:40.480Z,8.63
2023-01-21T07:35:26.791Z,9.57
2023-01-21T07:38:13.145Z,8.40
2023-01-21T07:40:59.722Z,8.97
2023-01-21T07:43:50.543Z,9.93
2023-01-21T07:46:36.990Z,8.27
2023-01-21T07:49:23.235Z,7.43
2023-01-21T07:52:09.510Z,8.57
2023-01-21T07:54:55.834Z,9.50
2023-01-21T07:57:42.020Z,8.80
2023-01-21T08:00:29.236Z,10.37
2023-01-21T08:03:17.882Z,10.10
2023-01-21T08:06:06.067Z,9.53
2023-01-21T08:08:52.356Z,9.73
2023-01-21T08:11:38.922Z,8.37
2023-01-21T08:14:25.434Z,9.67
2023-01-21T08:17:11.720Z,9.00
2023-01-21T08:19:58.311Z,8.70
2023-01-21T08:22:44.457Z,8.60
2023-01-21T08:25:30.879Z,8.10
2023-01-21T08:28:17.506Z,8.20
2023-01-21T08:31:09.812Z,7.47
2023-01-21T08:33:57.842Z,8.70
2023-01-21T08:36:44.468Z,8.67
2023-01-21T08:39:30.756Z,8.83
2023-01-21T08:42:17.227Z,7.60
2023-01-21T08:45:04.240Z,8.70
2023-01-21T08:47:50.631Z,7.50
2023-01-21T08:50:36.842Z,8.23
2023-01-21T08:53:23.258Z,8.07
2023-01-21T08:56:09.599Z,8.60
2023-01-21T08:58:57.057Z,7.97
2023-01-21T09:01:43.596Z,7.60
2023-01-21T09:04:30.305Z,8.93
2023-01-21T09:07:16.671Z,9.27
2023-01-21T09:10:07.003Z,7.83
2023-01-21T09:12:53.339Z,8.83
2023-01-21T09:15:43.800Z,8.73
2023-01-21T09:18:30.003Z,8.00
2023-01-21T09:21:16.813Z,8.20
2023-01-21T09:24:03.446Z,7.53
2023-01-21T09:26:49.854Z,7.53
2023-01-21T09:29:36.353Z,8.30
2023-01-21T09:32:22.930Z,7.70
2023-01-21T09:35:09.735Z,9.80
2023-01-21T09:37:56.427Z,8.20
2023-01-21T09:40:45.294Z,7.13
2023-01-21T09:43:41.478Z,7.97
2023-01-21T09:46:27.698Z,11.33
2023-01-21T09:49:22.421Z,8.37
2023-01-21T09:52:34.616Z,7.07
2023-01-21T09:55:44.539Z,6.77
2023-01-21T09:58:43.737Z,7.57
2023-01-21T10:01:40.910Z,8.50
2023-01-21T10:04:50.203Z,8.10
2023-01-21T10:08:07.545Z,6.73
2023-01-21T10:11:22.146Z,7.27
2023-01-21T10:14:14.737Z,7.93
2023-01-21T10:17:05.358Z,8.93
2023-01-21T10:19:55.764Z,11.77
2023-01-21T10:23:14.958Z,10.17
2023-01-21T10:26:07.660Z,9.87
2023-01-21T10:28:55.614Z,8.23
2023-01-21T10:31:49.787Z,8.27
2023-01-21T10:34:45.620Z,9.50
2023-01-21T10:37:42.187Z,9.10
2023-01-21T10:40:46.604Z,10.00
2023-01-21T10:43:47.499Z,9.80
2023-01-21T10:46:57.100Z,7.80
2023-01-21T10:50:02.786Z,7.60
2023-01-21T10:53:08.136Z,9.37
2023-01-21T10:56:00.672Z,8.37
2023-01-21T10:58:52.308Z,7.20
2023-01-21T11:02:16.016Z,9.03
2023-01-21T11:05:04.980Z,6.00
2023-01-21T11:07:52.778Z,5.83
2023-01-21T11:10:39.960Z,7.43
2023-01-21T11:13:26.437Z,6.30
2023-01-21T11:16:12.990Z,5.47
2023-01-21T11:18:59.614Z,5.60
2023-01-21T11:22:01.713Z,6.20
2023-01-21T11:24:50.568Z,6.30
2023-01-21T11:27:39.975Z,6.03
2023-01-21T11:30:50.752Z,5.57
2023-01-21T11:33:39.581Z,5.10
2023-01-21T11:36:26.205Z,5.17
2023-01-21T11:39:14.271Z,6.20
2023-01-21T11:42:27.177Z,5.60
2023-01-21T11:45:27.907Z,5.77
2023-01-21T11:48:20.478Z,5.97
2023-01-21T11:51:07.976Z,5.27
2023-01-21T11:54:13.769Z,5.83
2023-01-21T11:57:02.452Z,6.60
2023-01-21T11:59:50.315Z,6.70
2023-01-21T12:02:44.161Z,6.77
2023-01-21T12:05:39.147Z,5.77
2023-01-21T12:08:28.774Z,6.43
2023-01-21T12:11:20.602Z,6.33
2023-01-21T12:14:35.113Z,6.03
2023-01-21T12:17:39.810Z,5.77
2023-01-21T12:20:52.605Z,7.20
2023-01-21T12:23:51.324Z,6.73
2023-01-21T12:26:45.369Z,5.70
2023-01-21T12:29:42.733Z,5.97
2023-01-21T12:32:48.410Z,6.67
2023-01-21T12:35:46.339Z,7.50
2023-01-21T12:38:38.695Z,7.20
2023-01-21T12:41:30.837Z,7.13
2023-01-21T12:44:26.138Z,5.50
2023-01-21T12:47:51.816Z,7.43
2023-01-21T12:50:41.410Z,6.03
2023-01-21T12:53:57.351Z,6.20
2023-01-21T12:56:50.799Z,6.60
2023-01-21T12:59:43.750Z,6.30
2023-01-21T13:02:40.273Z,6.40
2023-01-21T13:05:38.116Z,6.20
2023-01-21T13:08:52.437Z,7.83
2023-01-21T13:11:50.641Z,6.77
2023-01-21T13:14:41.245Z,5.90
2023-01-21T13:17:32.500Z,7.43
2023-01-21T13:20:21.858Z,6.43
2023-01-21T13:23:45.422Z,6.03
2023-01-21T13:26:59.966Z,6.83
2023-01-21T13:29:54.491Z,6.87
2023-01-21T13:32:46.301Z,7.17
2023-01-21T13:35:35.832Z,5.90
2023-01-21T13:38:46.940Z,6.77
2023-01-21T13:41:59.708Z,6.07
2023-01-21T13:45:24.046Z,6.23
2023-01-21T13:48:13.454Z,6.00
2023-01-21T13:51:19.893Z,6.60
2023-01-21T13:54:34.341Z,5.47
2023-01-21T13:58:18.662Z,6.07
2023-01-21T14:01:15.331Z,5.57
2023-01-21T14:04:10.242Z,7.53
2023-01-21T14:07:04.048Z,6.63
2023-01-21T14:10:03.074Z,7.03
2023-01-21T14:13:26.955Z,6.00
2023-01-21T14:16:26.658Z,5.80
2023-01-21T14:19:19.034Z,7.00
2023-01-21T14:22:24.429Z,5.80
2023-01-21T14:25:27.779Z,6.57
2023-01-21T14:28:37.654Z,6.20
2023-01-21T14:31:36.691Z,7.13
2023-01-21T14:34:30.213Z,5.43
2023-01-21T14:37:43.610Z,6.23
2023-01-21T14:40:32.987Z,5.33
2023-01-21T14:43:42.091Z,6.37
2023-01-21T14:46:33.873Z,6.17
2023-01-21T14:49:39.757Z,7.70
2023-01-21T14:52:32.377Z,5.80
2023-01-21T14:55:32.996Z,5.60
2023-01-21T14:58:24.239Z,6.30
2023-01-21T15:01:26.176Z,6.63
2023-01-21T15:04:35.247Z,5.53
2023-01-21T15:07:24.963Z,6.63
2023-01-21T15:10:30.071Z,6.23
2023-01-21T15:13:34.112Z,6.87
2023-01-21T15:16:45.686Z,5.03
2023-01-21T15:19:36.054Z,4.57
2023-01-21T15:22:39.874Z,5.57
2023-01-21T15:25:31.974Z,4.97
2023-01-21T15:28:24.957Z,5.50
2023-01-21T15:31:43.919Z,7.10
2023-01-21T15:34:34.092Z,4.33
2023-01-21T15:37:23.543Z,6.37
2023-01-21T15:40:28.337Z,5.07
2023-01-21T15:43:23.846Z,5.00
2023-01-21T15:46:32.235Z,4.20
2023-01-21T15:49:25.702Z,5.37
2023-01-21T15:52:28.684Z,4.17
2023-01-21T15:55:33.987Z,4.97
2023-01-21T15:58:37.615Z,4.30
2023-01-21T16:01:29.486Z,4.77
2023-01-21T16:04:38.758Z,4.80
2023-01-21T16:07:30.638Z,5.83
2023-01-21T16:10:57.889Z,4.63
2023-01-21T16:13:57.623Z,4.97
2023-01-21T16:17:09.789Z,4.53
2023-01-21T16:19:59.697Z,4.40
2023-01-21T16:22:53.229Z,4.70
2023-01-21T16:25:50.622Z,4.13
2023-01-21T16:28:47.380Z,3.93
2023-01-21T16:31:51.804Z,3.73
2023-01-21T16:34:43.029Z,4.63
2023-01-21T16:37:30.494Z,4.50
2023-01-21T16:40:23.372Z,4.90
2023-01-21T16:43:26.489Z,4.47
2023-01-21T16:46:15.544Z,4.53
2023-01-21T16:49:04.851Z,4.40
2023-01-21T16:51:58.030Z,4.37
2023-01-21T16:54:49.714Z,4.90
2023-01-21T16:57:37.466Z,5.17
2023-01-21T17:00:24.435Z,5.23
2023-01-21T17:03:12.050Z,4.47
2023-01-21T17:06:02.707Z,5.07
2023-01-21T17:08:53.912Z,6.10
2023-01-21T17:11:46.152Z,6.77
2023-01-21T17:14:34.594Z,6.27
2023-01-21T17:17:23.768Z,5.10
2023-01-21T17:20:45.747Z,8.47
2023-01-21T17:23:52.911Z,6.97
2023-01-21T17:26:44.955Z,7.20
2023-01-21T17:29:33.357Z,6.93
2023-01-21T17:32:27.024Z,6.13
2023-01-21T17:35:18.316Z,14.73
2023-01-21T17:38:06.093Z,5.83
2023-01-21T17:41:03.744Z,6.10
2023-01-21T17:43:51.576Z,7.90
2023-01-21T17:46:45.211Z,8.27
2023-01-21T17:49:31.653Z,10.17
2023-01-21T17:52:20.249Z,11.57
2023-01-21T17:55:27.481Z,14.00
2023-01-21T17:58:31.856Z,13.33
2023-01-21T18:01:20.175Z,15.00
2023-01-21T18:04:06.584Z,13.07
2023-01-21T18:06:55.077Z,13.30
2023-01-21T18:09:42.238Z,11.50
2023-01-21T18:12:28.868Z,10.80
2023-01-21T18:15:16.341Z,16.30
2023-01-21T18:18:03.755Z,10.50
2023-01-21T18:20:50.348Z,9.73
2023-01-21T18:23:36.610Z,13.43
2023-01-21T18:26:27.688Z,15.33
2023-01-21T18:29:14.811Z,10.27
2023-01-21T18:32:01.341Z,10.67
2023-01-21T18:34:48.294Z,10.10
2023-01-21T18:37:34.663Z,10.03
2023-01-21T18:40:23.139Z,8.73
2023-01-21T18:43:10.280Z,7.83
2023-01-21T18:45:56.811Z,9.80
2023-01-21T18:48:43.152Z,9.17
2023-01-21T18:51:31.651Z,9.30
2023-01-21T18:54:18.190Z,9.23
2023-01-21T18:57:10.210Z,10.67
2023-01-21T18:59:56.358Z,7.87
2023-01-21T19:02:43.261Z,8.57
2023-01-21T19:05:34.103Z,8.67
2023-01-21T19:08:24.696Z,9.20
2023-01-21T19:11:13.956Z,8.53
2023-01-21T19:14:00.259Z,9.40
2023-01-21T19:16:46.825Z,7.73
2023-01-21T19:19:33.441Z,8.83
2023-01-21T19:22:19.775Z,8.87
2023-01-21T19:25:06.710Z,9.73
2023-01-21T19:27:55.700Z,9.77
2023-01-21T19:30:45.080Z,9.50
2023-01-21T19:33:31.685Z,11.10
2023-01-21T19:36:20.466Z,11.87
2023-01-21T19:39:15.784Z,10.10
2023-01-21T19:42:08.387Z,9.57
2023-01-21T19:44:55.115Z,15.60
2023-01-21T19:47:44.395Z,10.70
2023-01-21T19:50:30.883Z,11.47
2023-01-21T19:53:20.896Z,8.37
2023-01-21T19:56:15.918Z,7.80
2023-01-21T19:59:03.138Z,10.03
2023-01-21T20:01:50.829Z,9.53
2023-01-21T20:04:37.345Z,6.53
2023-01-21T20:07:24.265Z,7.77
2023-01-21T20:10:26.168Z,7.87
2023-01-21T20:13:13.846Z,8.43
2023-01-21T20:16:03.604Z,7.27
2023-01-21T20:18:50.445Z,9.07
2023-01-21T20:21:49.921Z,8.23
2023-01-21T20:24:41.562Z,9.67
2023-01-21T20:27:27.715Z,10.77
2023-01-21T20:30:19.688Z,7.90
2023-01-21T20:33:06.296Z,8.80
2023-01-21T20:35:55.697Z,8.00
2023-01-21T20:38:43.078Z,9.73
2023-01-21T20:41:29.915Z,8.50
2023-01-21T20:44:16.660Z,8.90
2023-01-21T20:47:03.559Z,9.87
2023-01-21T20:49:49.746Z,8.63
2023-01-21T20:52:36.551Z,9.73
2023-01-21T20:55:26.701Z,9.60
2023-01-21T20:58:14.221Z,8.60
2023-01-21T21:01:00.670Z,10.87
2023-01-21T21:03:48.302Z,12.43
2023-01-21T21:06:34.984Z,17.07
2023-01-21T21:09:22.256Z,12.77
2023-01-21T21:12:08.881Z,11.40
2023-01-21T21:14:55.548Z,11.43
2023-01-21T21:17:43.713Z,8.83
2023-01-21T21:20:35.892Z,11.33
2023-01-21T21:23:22.535Z,11.93
2023-01-21T21:26:25.514Z,11.90
2023-01-21T21:29:13.943Z,9.53
2023-01-21T21:32:02.063Z,8.57
2023-01-21T21:34:50.904Z,12.73
2023-01-21T21:37:38.364Z,13.00
2023-01-21T21:40:26.807Z,11.30
2023-01-21T21:43:32.213Z,13.97
2023-01-21T21:46:37.424Z,10.40
2023-01-21T21:49:24.730Z,9.47
2023-01-21T21:52:17.191Z,12.83
2023-01-21T21:55:04.062Z,9.47
2023-01-21T21:57:50.577Z,11.43
2023-01-21T22:00:36.860Z,10.57
2023-01-21T22:03:23.615Z,9.20
2023-01-21T22:06:11.303Z,13.43
2023-01-21T22:09:00.963Z,8.57
2023-01-21T22:11:47.550Z,12.63
2023-01-21T22:14:33.963Z,8.73
2023-01-21T22:17:20.182Z,9.17
2023-01-21T22:20:07.319Z,12.27
2023-01-21T22:22:53.705Z,8.37
2023-01-21T22:25:39.934Z,8.87
2023-01-21T22:28:26.624Z,8.23
2023-01-21T22:31:27.616Z,8.40
2023-01-21T22:34:14.150Z,8.07
2023-01-21T22:37:00.251Z,12.07
2023-01-21T22:39:46.596Z,8.77
2023-01-21T22:42:33.234Z,8.00
2023-01-21T22:45:21.853Z,9.83
2023-01-21T22:48:08.596Z,8.43
2023-01-21T22:50:58.056Z,8.97
2023-01-21T22:53:44.981Z,9.10
2023-01-21T22:56:49.966Z,9.30
2023-01-21T22:59:39.686Z,9.00
2023-01-21T23:02:26.192Z,7.43
2023-01-21T23:05:12.790Z,13.27
2023-01-21T23:11:00.523Z,13.27
2023-01-21T23:13:49.155Z,10.37
2023-01-21T23:16:35.501Z,9.80
2023-01-21T23:19:22.189Z,8.33
2023-01-21T23:22:08.648Z,21.07
2023-01-21T23:24:55.088Z,12.43
2023-01-21T23:27:41.786Z,11.60
2023-01-21T23:30:28.178Z,20.03
2023-01-21T23:33:16.061Z,9.30
2023-01-21T23:36:03.426Z,12.77
2023-01-21T23:38:49.843Z,9.37
2023-01-21T23:41:36.395Z,7.13
2023-01-21T23:44:25.432Z,8.53
2023-01-21T23:47:11.981Z,8.80
2023-01-21T23:49:58.443Z,7.70
2023-01-21T23:52:44.979Z,7.87
2023-01-21T23:55:31.208Z,12.67
2023-01-21T23:58:17.895Z,8.47
